createdAt,value
2023-03-15T00:01:24.313Z,1.77
2023-03-15T00:03:51.570Z,1.50
2023-03-15T00:06:18.437Z,1.80
2023-03-15T00:08:47.933Z,2.07
2023-03-15T00:11:17.062Z,1.90
2023-03-15T00:13:44.458Z,1.83
2023-03-15T00:16:11.787Z,1.70
2023-03-15T00:18:38.848Z,2.40
2023-03-15T00:21:05.857Z,2.07
2023-03-15T00:23:32.893Z,2.10
2023-03-15T00:25:59.843Z,2.40
2023-03-15T00:28:26.706Z,2.13
2023-03-15T00:31:05.396Z,2.10
2023-03-15T00:33:35.210Z,2.00
2023-03-15T00:36:07.757Z,2.53
2023-03-15T00:38:35.964Z,1.97
2023-03-15T00:41:11.223Z,2.37
2023-03-15T00:43:38.669Z,2.00
2023-03-15T00:46:06.320Z,2.33
2023-03-15T00:48:35.446Z,1.90
2023-03-15T00:51:06.752Z,2.40
2023-03-15T00:53:34.458Z,2.20
2023-03-15T00:56:11.518Z,1.87
2023-03-15T00:58:39.446Z,1.70
2023-03-15T01:01:11.940Z,2.20
2023-03-15T01:03:39.390Z,2.10
2023-03-15T01:06:27.764Z,2.07
2023-03-15T01:08:57.235Z,2.07
2023-03-15T01:11:27.550Z,2.00
2023-03-15T01:13:56.576Z,2.27
2023-03-15T01:16:24.301Z,2.37
2023-03-15T01:18:54.440Z,1.93
2023-03-15T01:21:22.608Z,2.30
2023-03-15T01:23:49.823Z,2.10
2023-03-15T01:26:17.975Z,2.30
2023-03-15T01:28:45.337Z,2.17
2023-03-15T01:31:25.464Z,2.50
2023-03-15T01:33:53.142Z,2.10
2023-03-15T01:36:20.049Z,2.20
2023-03-15T01:38:47.232Z,2.07
2023-03-15T01:41:15.939Z,2.40
2023-03-15T01:43:47.523Z,2.27
2023-03-15T01:46:23.679Z,2.57
2023-03-15T01:49:12.924Z,2.43
2023-03-15T01:52:13.174Z,2.40
2023-03-15T01:54:44.131Z,2.40
2023-03-15T01:57:16.553Z,2.80
2023-03-15T01:59:52.753Z,2.67
2023-03-15T02:02:23.028Z,3.17
2023-03-15T02:04:57.093Z,3.47
2023-03-15T02:07:27.682Z,3.40
2023-03-15T02:10:02.774Z,3.60
2023-03-15T02:12:33.874Z,3.37
2023-03-15T02:15:03.405Z,3.67
2023-03-15T02:17:37.392Z,4.07
2023-03-15T02:20:39.666Z,3.73
2023-03-15T02:23:13.091Z,3.87
2023-03-15T02:25:48.469Z,4.40
2023-03-15T02:28:18.029Z,4.60
2023-03-15T02:30:46.428Z,4.17
2023-03-15T02:33:47.029Z,4.30
2023-03-15T02:36:26.300Z,4.00
2023-03-15T02:38:54.614Z,4.00
2023-03-15T02:41:28.034Z,4.20
2023-03-15T02:44:01.602Z,4.27
2023-03-15T02:46:29.168Z,3.87
2023-03-15T02:48:56.783Z,4.13
2023-03-15T02:51:25.314Z,4.17
2023-03-15T02:53:52.154Z,4.47
2023-03-15T02:56:19.346Z,4.57
2023-03-15T02:58:46.543Z,4.07
2023-03-15T03:01:14.603Z,4.20
2023-03-15T03:03:42.950Z,4.80
2023-03-15T03:06:10.966Z,4.80
2023-03-15T03:08:37.934Z,4.70
2023-03-15T03:11:05.407Z,4.63
2023-03-15T03:13:32.197Z,4.63
2023-03-15T03:15:59.139Z,4.97
2023-03-15T03:18:27.464Z,4.80
2023-03-15T03:20:59.420Z,4.97
2023-03-15T03:23:26.939Z,4.63
2023-03-15T03:25:57.126Z,5.23
2023-03-15T03:28:26.347Z,5.07
2023-03-15T03:30:54.433Z,4.80
2023-03-15T03:33:21.977Z,4.80
2023-03-15T03:35:49.649Z,4.83
2023-03-15T03:38:17.957Z,5.47
2023-03-15T03:40:46.403Z,5.67
2023-03-15T03:43:13.455Z,6.13
2023-03-15T03:45:40.454Z,6.30
2023-03-15T03:48:07.347Z,6.73
2023-03-15T03:50:34.062Z,7.00
2023-03-15T03:53:01.293Z,7.53
2023-03-15T03:55:28.167Z,6.97
2023-03-15T03:57:55.255Z,7.17
2023-03-15T04:00:22.177Z,6.80
2023-03-15T04:02:49.072Z,7.53
2023-03-15T04:05:15.913Z,6.97
2023-03-15T04:07:42.881Z,7.80
2023-03-15T04:10:14.932Z,7.43
2023-03-15T04:12:43.666Z,8.70
2023-03-15T04:15:12.218Z,8.40
2023-03-15T04:17:39.659Z,8.20
2023-03-15T04:20:09.304Z,8.07
2023-03-15T04:22:36.403Z,8.20
2023-03-15T04:25:04.018Z,8.20
2023-03-15T04:27:31.288Z,8.37
2023-03-15T04:29:58.190Z,9.47
2023-03-15T04:32:25.207Z,9.87
2023-03-15T04:34:52.120Z,9.30
2023-03-15T04:37:19.472Z,9.27
2023-03-15T04:39:46.702Z,9.83
2023-03-15T04:42:13.473Z,9.50
2023-03-15T04:44:40.212Z,9.27
2023-03-15T04:47:07.230Z,8.67
2023-03-15T04:49:34.231Z,9.70
2023-03-15T04:52:01.548Z,9.10
2023-03-15T04:54:28.604Z,10.33
2023-03-15T04:56:55.510Z,11.77
2023-03-15T04:59:22.399Z,11.00
2023-03-15T05:01:49.387Z,10.23
2023-03-15T05:04:16.734Z,10.50
2023-03-15T05:06:43.622Z,9.53
2023-03-15T05:09:18.094Z,9.33
2023-03-15T05:11:46.807Z,9.40
2023-03-15T05:14:14.321Z,9.43
2023-03-15T05:16:41.565Z,8.70
2023-03-15T05:19:08.700Z,9.80
2023-03-15T05:21:36.665Z,9.37
2023-03-15T05:24:04.573Z,9.40
2023-03-15T05:26:36.288Z,8.53
2023-03-15T05:29:04.152Z,9.37
2023-03-15T05:31:37.150Z,11.47
2023-03-15T05:34:04.914Z,11.00
2023-03-15T05:36:32.723Z,11.47
2023-03-15T05:38:59.740Z,9.17
2023-03-15T05:41:26.808Z,10.97
2023-03-15T05:43:53.665Z,11.77
2023-03-15T05:46:23.022Z,12.83
2023-03-15T05:48:50.203Z,11.57
2023-03-15T05:51:17.379Z,12.43
2023-03-15T05:53:45.998Z,13.77
2023-03-15T05:56:13.415Z,11.80
2023-03-15T05:58:40.604Z,11.40
2023-03-15T06:01:07.595Z,12.00
2023-03-15T06:03:34.445Z,14.07
2023-03-15T06:06:01.381Z,13.40
2023-03-15T06:08:28.421Z,13.23
2023-03-15T06:10:55.493Z,14.30
2023-03-15T06:13:22.434Z,13.67
2023-03-15T06:15:49.309Z,13.00
2023-03-15T06:18:17.677Z,13.17
2023-03-15T06:20:44.888Z,13.43
2023-03-15T06:23:11.840Z,14.10
2023-03-15T06:25:38.551Z,13.77
2023-03-15T06:28:05.651Z,12.27
2023-03-15T06:30:35.018Z,11.60
2023-03-15T06:33:02.069Z,10.93
2023-03-15T06:35:29.254Z,10.57
2023-03-15T06:37:56.324Z,10.60
2023-03-15T06:40:26.324Z,9.67
2023-03-15T06:42:54.922Z,9.97
2023-03-15T06:45:22.061Z,9.63
2023-03-15T06:47:49.221Z,9.93
2023-03-15T06:50:16.450Z,10.13
2023-03-15T06:52:43.329Z,9.80
2023-03-15T06:55:12.756Z,10.70
2023-03-15T06:57:39.589Z,10.83
2023-03-15T07:00:11.479Z,9.90
2023-03-15T07:02:38.943Z,7.87
2023-03-15T07:05:06.386Z,6.87
2023-03-15T07:07:33.101Z,5.40
2023-03-15T07:10:00.216Z,4.70
2023-03-15T07:12:27.373Z,5.33
2023-03-15T07:14:54.146Z,4.77
2023-03-15T07:17:21.028Z,4.67
2023-03-15T07:19:56.169Z,5.33
2023-03-15T07:22:24.282Z,4.40
2023-03-15T07:24:51.561Z,4.77
2023-03-15T07:27:19.529Z,4.30
2023-03-15T07:29:46.922Z,3.90
2023-03-15T07:32:13.865Z,4.53
2023-03-15T07:34:40.676Z,4.03
2023-03-15T07:37:07.574Z,4.50
2023-03-15T07:39:34.450Z,4.07
2023-03-15T07:42:01.583Z,4.50
2023-03-15T07:44:28.589Z,4.70
2023-03-15T07:46:56.123Z,4.73
2023-03-15T07:49:23.325Z,5.33
2023-03-15T07:51:50.397Z,4.40
2023-03-15T07:54:17.531Z,3.37
2023-03-15T07:56:44.685Z,2.67
2023-03-15T07:59:16.064Z,2.70
2023-03-15T08:01:43.106Z,2.40
2023-03-15T08:04:10.038Z,3.10
2023-03-15T08:06:36.957Z,2.30
2023-03-15T08:09:06.000Z,2.33
2023-03-15T08:14:06.276Z,2.30
2023-03-15T08:16:33.215Z,2.97
2023-03-15T08:19:00.210Z,2.87
2023-03-15T08:21:27.388Z,2.20
2023-03-15T08:23:54.348Z,2.20
2023-03-15T08:26:21.202Z,2.30
2023-03-15T08:28:48.228Z,2.00
2023-03-15T08:31:15.197Z,1.73
2023-03-15T08:33:42.428Z,2.10
2023-03-15T08:36:09.791Z,1.80
2023-03-15T08:38:37.146Z,1.60
2023-03-15T08:41:04.014Z,1.90
2023-03-15T08:43:30.963Z,1.63
2023-03-15T08:46:01.643Z,1.40
2023-03-15T08:48:29.648Z,1.80
2023-03-15T08:50:57.737Z,1.90
2023-03-15T08:53:24.547Z,1.57
2023-03-15T08:55:54.354Z,1.10
2023-03-15T08:58:21.303Z,1.20
2023-03-15T09:00:50.113Z,1.50
2023-03-15T09:03:17.657Z,1.63
2023-03-15T09:05:44.755Z,1.87
2023-03-15T09:08:11.566Z,1.37
2023-03-15T09:10:38.438Z,1.80
2023-03-15T09:13:05.475Z,1.60
2023-03-15T09:15:32.247Z,2.00
2023-03-15T09:17:59.046Z,1.57
2023-03-15T09:20:28.390Z,1.57
2023-03-15T09:22:57.606Z,39.40
2023-03-15T09:25:25.857Z,5.80
2023-03-15T09:27:53.471Z,19.70
2023-03-15T09:30:20.614Z,2.37
2023-03-15T09:32:48.405Z,4.77
2023-03-15T09:35:18.369Z,7.83
2023-03-15T09:37:45.713Z,3.10
2023-03-15T09:40:33.849Z,4.17
2023-03-15T09:43:06.708Z,3.03
2023-03-15T09:45:59.071Z,2.20
2023-03-15T10:37:17.493Z,0.60
2023-03-15T10:39:49.936Z,0.80
2023-03-15T10:42:32.269Z,0.77
2023-03-15T10:45:11.908Z,0.70
2023-03-15T10:47:50.463Z,0.93
2023-03-15T10:50:31.143Z,0.90
2023-03-15T10:53:00.542Z,0.90
2023-03-15T10:55:38.282Z,0.90
2023-03-15T10:58:28.568Z,0.90
2023-03-15T11:01:11.471Z,0.80
2023-03-15T11:03:39.221Z,1.00
2023-03-15T11:06:21.225Z,1.07
2023-03-15T11:08:49.195Z,1.03
2023-03-15T11:11:16.386Z,1.07
2023-03-15T11:14:03.063Z,0.90
2023-03-15T11:16:35.139Z,1.70
2023-03-15T11:19:04.351Z,1.50
2023-03-15T11:21:33.810Z,1.33
2023-03-15T11:24:06.538Z,1.37
2023-03-15T11:26:36.871Z,1.70
2023-03-15T11:29:16.348Z,1.30
2023-03-15T11:31:43.624Z,1.47
2023-03-15T11:34:22.505Z,1.40
2023-03-15T11:37:07.286Z,1.67
2023-03-15T11:39:45.678Z,1.43
2023-03-15T11:42:25.874Z,1.63
2023-03-15T11:44:59.106Z,1.80
2023-03-15T11:47:40.639Z,1.80
2023-03-15T11:50:11.194Z,1.70
2023-03-15T11:52:38.069Z,1.60
2023-03-15T11:55:05.428Z,1.33
2023-03-15T11:57:36.872Z,1.60
2023-03-15T12:00:27.320Z,1.20
2023-03-15T12:03:00.182Z,1.10
2023-03-15T12:05:49.022Z,0.80
2023-03-15T12:08:25.386Z,1.13
2023-03-15T12:10:52.868Z,1.17
2023-03-15T12:13:24.302Z,1.30
2023-03-15T12:15:52.227Z,1.20
2023-03-15T12:18:22.931Z,1.03
2023-03-15T12:20:57.452Z,0.97
2023-03-15T12:23:58.664Z,0.90
2023-03-15T12:26:27.545Z,0.97
2023-03-15T12:29:00.905Z,1.07
2023-03-15T12:31:44.728Z,1.03
2023-03-15T12:34:44.672Z,1.20
2023-03-15T12:37:28.702Z,0.87
2023-03-15T12:40:19.734Z,1.40
2023-03-15T12:42:46.880Z,1.10
2023-03-15T12:45:16.694Z,1.27
2023-03-15T12:47:53.106Z,1.53
2023-03-15T12:50:48.185Z,1.70
2023-03-15T12:53:18.593Z,1.47
2023-03-15T12:55:45.598Z,1.90
2023-03-15T12:58:13.885Z,1.60
2023-03-15T13:00:43.508Z,2.00
2023-03-15T13:03:19.645Z,1.80
2023-03-15T13:06:14.666Z,1.40
2023-03-15T13:09:09.500Z,1.70
2023-03-15T13:12:01.279Z,1.50
2023-03-15T13:14:50.262Z,1.70
2023-03-15T13:17:35.532Z,1.73
2023-03-15T13:20:40.146Z,1.83
2023-03-15T13:23:21.289Z,1.60
2023-03-15T13:26:12.853Z,2.10
2023-03-15T13:28:47.070Z,1.90
2023-03-15T13:31:22.017Z,2.00
2023-03-15T13:33:57.611Z,1.77
2023-03-15T13:36:46.126Z,1.70
2023-03-15T13:39:24.254Z,1.73
2023-03-15T13:42:02.574Z,2.03
2023-03-15T13:44:31.244Z,1.93
2023-03-15T13:46:59.616Z,1.97
2023-03-15T13:49:32.656Z,1.60
2023-03-15T13:52:02.996Z,1.70
2023-03-15T13:54:34.909Z,2.30
2023-03-15T13:57:07.930Z,2.40
2023-03-15T13:59:45.282Z,1.87
2023-03-15T14:02:28.925Z,1.73
2023-03-15T14:05:11.333Z,1.70
2023-03-15T14:07:45.976Z,1.43
2023-03-15T14:10:18.843Z,1.30
2023-03-15T14:12:46.623Z,1.80
2023-03-15T14:15:36.354Z,1.67
2023-03-15T14:18:25.122Z,1.90
2023-03-15T14:21:05.107Z,1.83
2023-03-15T14:23:32.317Z,1.70
2023-03-15T14:26:08.013Z,1.83
2023-03-15T14:28:35.562Z,1.93
2023-03-15T14:31:06.504Z,1.60
2023-03-15T14:33:40.992Z,1.93
2023-03-15T14:36:22.836Z,2.20
2023-03-15T14:38:54.795Z,1.80
2023-03-15T14:41:32.669Z,1.80
2023-03-15T14:44:01.526Z,1.90
2023-03-15T14:46:28.819Z,1.90
2023-03-15T14:48:59.069Z,1.83
2023-03-15T14:51:28.813Z,2.13
2023-03-15T14:53:57.616Z,2.10
2023-03-15T14:56:25.606Z,2.80
2023-03-15T14:58:55.954Z,2.07
2023-03-15T15:01:27.318Z,2.50
2023-03-15T15:04:03.136Z,1.90
2023-03-15T15:06:33.749Z,1.93
2023-03-15T15:09:02.052Z,2.00
2023-03-15T15:11:28.985Z,2.10
2023-03-15T15:13:56.843Z,2.23
2023-03-15T15:16:24.260Z,2.07
2023-03-15T15:18:54.109Z,2.47
2023-03-15T15:21:27.538Z,2.10
2023-03-15T15:23:58.915Z,1.57
2023-03-15T15:26:28.762Z,1.60
2023-03-15T15:28:56.776Z,2.00
2023-03-15T15:31:25.910Z,1.80
2023-03-15T15:33:55.852Z,2.50
2023-03-15T15:36:26.957Z,1.77
2023-03-15T15:38:54.032Z,2.13
2023-03-15T15:41:31.686Z,2.40
2023-03-15T15:43:59.775Z,2.10
2023-03-15T15:46:26.659Z,1.80
2023-03-15T15:48:55.696Z,1.97
2023-03-15T15:51:52.628Z,2.13
2023-03-15T15:54:26.228Z,2.23
2023-03-15T15:56:57.823Z,1.90
2023-03-15T15:59:26.020Z,1.97
2023-03-15T16:02:01.211Z,1.80
2023-03-15T16:04:29.889Z,1.80
2023-03-15T16:07:01.837Z,1.97
2023-03-15T16:09:31.002Z,1.97
2023-03-15T16:11:58.573Z,2.17
2023-03-15T16:14:25.570Z,2.40
2023-03-15T16:16:52.493Z,2.10
2023-03-15T16:19:19.488Z,2.20
2023-03-15T16:21:49.564Z,2.43
2023-03-15T16:24:24.429Z,2.40
2023-03-15T16:26:59.143Z,2.30
2023-03-15T16:29:35.897Z,2.20
2023-03-15T16:32:16.549Z,2.10
2023-03-15T16:34:48.476Z,1.93
2023-03-15T16:37:20.025Z,2.27
2023-03-15T16:39:50.157Z,2.57
2023-03-15T16:42:18.321Z,2.30
2023-03-15T16:44:45.193Z,2.50
2023-03-15T16:47:14.847Z,2.00
2023-03-15T16:49:41.984Z,2.23
2023-03-15T16:52:13.703Z,1.97
2023-03-15T16:54:43.048Z,2.33
2023-03-15T16:57:23.524Z,2.10
2023-03-15T16:59:50.961Z,1.87
2023-03-15T17:02:20.782Z,2.50
2023-03-15T17:04:47.923Z,2.40
2023-03-15T17:07:15.953Z,2.37
2023-03-15T17:09:46.421Z,2.07
2023-03-15T17:12:26.028Z,2.80
2023-03-15T17:14:56.730Z,4.37
2023-03-15T17:17:25.770Z,5.33
2023-03-15T17:19:53.044Z,4.33
2023-03-15T17:22:20.724Z,8.23
2023-03-15T17:24:49.139Z,9.30
2023-03-15T17:27:32.086Z,10.07
2023-03-15T17:29:59.079Z,19.57
2023-03-15T17:32:26.255Z,20.70
2023-03-15T17:34:59.237Z,15.50
2023-03-15T17:37:30.877Z,8.70
2023-03-15T17:39:58.314Z,10.00
2023-03-15T17:42:25.411Z,7.60
2023-03-15T17:44:52.402Z,8.97
2023-03-15T17:47:19.423Z,7.03
2023-03-15T17:49:48.352Z,5.97
2023-03-15T17:52:17.515Z,6.43
2023-03-15T17:54:47.466Z,4.97
2023-03-15T17:57:14.542Z,6.27
2023-03-15T17:59:41.443Z,4.40
2023-03-15T18:02:16.037Z,4.30
2023-03-15T18:04:45.136Z,13.40
2023-03-15T18:07:14.823Z,11.70
2023-03-15T18:09:41.683Z,7.13
2023-03-15T18:12:12.810Z,4.50
2023-03-15T18:14:40.819Z,5.00
2023-03-15T18:17:07.744Z,9.63
2023-03-15T18:19:34.740Z,4.53
2023-03-15T18:22:02.012Z,3.30
2023-03-15T18:24:29.117Z,3.30
2023-03-15T18:26:55.959Z,3.40
2023-03-15T18:29:22.934Z,3.50
2023-03-15T18:31:52.712Z,3.10
2023-03-15T18:36:49.680Z,3.20
2023-03-15T18:39:16.788Z,4.20
2023-03-15T18:41:43.767Z,3.70
2023-03-15T18:44:11.370Z,2.90
2023-03-15T18:46:38.466Z,3.60
2023-03-15T18:49:05.898Z,3.60
2023-03-15T18:51:32.765Z,3.40
2023-03-15T18:53:59.693Z,4.10
2023-03-15T18:56:34.556Z,3.90
2023-03-15T18:59:02.333Z,4.20
2023-03-15T19:01:29.401Z,4.90
2023-03-15T19:03:59.035Z,4.63
2023-03-15T19:06:29.027Z,4.13
2023-03-15T19:08:57.543Z,4.10
2023-03-15T19:11:25.375Z,4.43
2023-03-15T19:13:52.942Z,5.20
2023-03-15T19:16:23.494Z,4.37
2023-03-15T19:18:52.542Z,4.60
2023-03-15T19:21:20.381Z,4.70
2023-03-15T19:23:48.299Z,3.83
2023-03-15T19:26:16.591Z,3.37
2023-03-15T19:28:46.551Z,3.80
2023-03-15T19:31:13.503Z,3.30
2023-03-15T19:33:40.664Z,3.30
2023-03-15T19:36:08.699Z,3.77
2023-03-15T19:38:35.796Z,3.43
2023-03-15T19:41:05.039Z,2.97
2023-03-15T19:43:32.862Z,3.63
2023-03-15T19:46:01.856Z,3.00
2023-03-15T19:48:29.154Z,3.23
2023-03-15T19:50:56.415Z,3.30
2023-03-15T19:53:23.340Z,3.43
2023-03-15T19:55:50.260Z,3.40
2023-03-15T19:58:17.433Z,3.73
2023-03-15T20:00:45.554Z,3.80
2023-03-15T20:03:13.043Z,4.20
2023-03-15T20:05:40.577Z,4.07
2023-03-15T20:08:09.071Z,4.10
2023-03-15T20:10:36.689Z,5.70
2023-03-15T20:13:03.923Z,4.17
2023-03-15T20:15:32.012Z,4.67
2023-03-15T20:17:59.154Z,4.83
2023-03-15T20:20:26.115Z,5.60
2023-03-15T20:22:53.110Z,6.30
2023-03-15T20:25:20.715Z,6.13
2023-03-15T20:27:48.329Z,5.80
2023-03-15T20:30:20.072Z,6.77
2023-03-15T20:32:47.418Z,6.17
2023-03-15T20:35:17.616Z,6.00
2023-03-15T20:37:44.747Z,7.70
2023-03-15T20:40:14.779Z,8.67
2023-03-15T20:42:42.373Z,8.13
2023-03-15T20:45:12.628Z,8.23
2023-03-15T20:47:41.423Z,7.17
2023-03-15T20:50:10.177Z,7.43
2023-03-15T20:52:36.998Z,6.57
2023-03-15T20:55:05.632Z,5.97
2023-03-15T20:57:36.792Z,5.60
2023-03-15T21:00:18.517Z,5.33
2023-03-15T21:02:48.094Z,7.50
2023-03-15T21:05:16.464Z,5.90
2023-03-15T21:07:44.279Z,5.90
2023-03-15T21:10:14.062Z,5.90
2023-03-15T21:12:41.177Z,6.57
2023-03-15T21:15:08.534Z,5.77
2023-03-15T21:17:35.755Z,5.60
2023-03-15T21:20:05.857Z,5.00
2023-03-15T21:22:32.700Z,4.93
2023-03-15T21:24:59.532Z,4.80
2023-03-15T21:27:26.433Z,4.50
2023-03-15T21:29:53.804Z,4.70
2023-03-15T21:32:21.599Z,4.83
2023-03-15T21:34:48.802Z,5.13
2023-03-15T21:37:16.244Z,5.70
2023-03-15T21:39:43.321Z,5.47
2023-03-15T21:42:10.382Z,6.40
2023-03-15T21:44:40.792Z,5.30
2023-03-15T21:47:07.785Z,6.50
2023-03-15T21:49:37.178Z,6.67
2023-03-15T21:52:04.125Z,5.67
2023-03-15T21:54:31.188Z,5.93
2023-03-15T21:56:58.394Z,6.90
2023-03-15T21:59:28.409Z,6.40
2023-03-15T22:01:56.331Z,5.93
2023-03-15T22:04:27.260Z,5.50
2023-03-15T22:06:54.721Z,5.53
2023-03-15T22:09:25.243Z,5.97
2023-03-15T22:11:52.260Z,6.07
2023-03-15T22:14:19.221Z,5.73
2023-03-15T22:16:46.288Z,5.20
2023-03-15T22:19:14.630Z,5.10
2023-03-15T22:21:42.467Z,5.37
2023-03-15T22:24:10.118Z,5.57
2023-03-15T22:26:37.127Z,5.77
2023-03-15T22:29:03.921Z,4.80
2023-03-15T22:31:33.669Z,5.00
2023-03-15T22:34:01.958Z,5.53
2023-03-15T22:36:29.759Z,4.50
2023-03-15T22:38:58.528Z,4.50
2023-03-15T22:41:25.729Z,4.87
2023-03-15T22:43:55.438Z,4.07
2023-03-15T22:46:22.325Z,4.13
2023-03-15T22:48:49.307Z,4.27
2023-03-15T22:51:16.923Z,5.37
2023-03-15T22:53:44.419Z,4.77
2023-03-15T22:56:11.573Z,4.57
2023-03-15T22:58:38.967Z,4.47
2023-03-15T23:01:06.036Z,4.17
2023-03-15T23:03:33.183Z,4.60
2023-03-15T23:06:00.906Z,3.83
2023-03-15T23:08:27.793Z,3.83
2023-03-15T23:10:57.720Z,4.50
2023-03-15T23:13:25.043Z,3.90
2023-03-15T23:15:52.022Z,3.93
2023-03-15T23:18:19.253Z,4.53
2023-03-15T23:20:46.644Z,4.00
2023-03-15T23:23:13.914Z,5.07
2023-03-15T23:25:40.896Z,4.13
2023-03-15T23:28:08.158Z,3.93
2023-03-15T23:30:36.363Z,4.20
2023-03-15T23:33:04.414Z,4.80
2023-03-15T23:35:32.084Z,5.20
2023-03-15T23:37:59.314Z,6.17
2023-03-15T23:40:26.806Z,6.80
2023-03-15T23:42:59.213Z,6.07
2023-03-15T23:45:29.691Z,7.80
2023-03-15T23:47:56.907Z,7.07
2023-03-15T23:50:26.308Z,7.97
2023-03-15T23:52:54.821Z,7.80
2023-03-15T23:55:23.756Z,7.13
2023-03-15T23:57:54.233Z,5.87
